createdAt,value
2023-07-23T00:02:08.756Z,97720.78
2023-07-23T00:07:12.317Z,97799.06
2023-07-23T00:12:15.770Z,97750.78
2023-07-23T00:17:20.617Z,97800.69
2023-07-23T00:22:24.134Z,97799.34
2023-07-23T00:27:27.636Z,97797.19
2023-07-23T00:32:32.539Z,97794.44
2023-07-23T00:37:36.130Z,97799.91
2023-07-23T00:42:39.980Z,97797.69
2023-07-23T00:47:45.729Z,97797.69
2023-07-23T00:52:49.643Z,97713.66
2023-07-23T00:57:53.135Z,97780.25
2023-07-23T01:02:59.081Z,97630.13
2023-07-23T01:08:04.494Z,97798.16
2023-07-23T01:13:08.136Z,97781.81
2023-07-23T01:18:13.406Z,97743.03
2023-07-23T01:23:18.220Z,97720.06
2023-07-23T01:28:21.666Z,97779.25
2023-07-23T01:33:25.566Z,97781.69
2023-07-23T01:38:30.637Z,97680.69
2023-07-23T01:43:34.380Z,97761.75
2023-07-23T01:48:37.866Z,97762.59
2023-07-23T01:53:42.854Z,97763.69
2023-07-23T01:58:46.370Z,97759.34
2023-07-23T02:03:49.915Z,97759.06
2023-07-23T02:08:55.034Z,97639.16
2023-07-23T02:13:58.682Z,97760.97
2023-07-23T02:19:02.533Z,97757.69
2023-07-23T02:24:07.755Z,97758.22
2023-07-23T02:29:15.881Z,97755.41
2023-07-23T02:34:19.511Z,97723.66
2023-07-23T02:39:24.371Z,97747.88
2023-07-23T02:44:29.467Z,97725.25
2023-07-23T02:49:32.923Z,97743.28
2023-07-23T02:54:37.722Z,97767.28
2023-07-23T02:59:41.167Z,97721.94
2023-07-23T03:04:44.656Z,97746.56
2023-07-23T03:09:49.735Z,97767.28
2023-07-23T03:14:54.332Z,97777.34
2023-07-23T03:19:57.715Z,97687.41
2023-07-23T03:25:02.438Z,97727.25
2023-07-23T03:30:06.978Z,97744.69
2023-07-23T03:35:10.773Z,97777.44
2023-07-23T03:40:15.704Z,97706.31
2023-07-23T03:45:19.521Z,97698.78
2023-07-23T03:50:23.624Z,97696.88
2023-07-23T03:55:28.587Z,97777.22
2023-07-23T04:00:32.638Z,97729.25
2023-07-23T04:05:41.282Z,97780.72
2023-07-23T04:10:46.117Z,97702.56
2023-07-23T04:15:49.627Z,97779.91
2023-07-23T04:20:53.115Z,97713.19
2023-07-23T04:25:58.118Z,97460.28
2023-07-23T04:31:01.582Z,97776.28
2023-07-23T04:36:05.582Z,97745.38
2023-07-23T04:41:35.145Z,97795.00
2023-07-23T04:46:39.006Z,97803.03
2023-07-23T04:51:42.436Z,97800.06
2023-07-23T04:56:47.282Z,97796.56
2023-07-23T05:01:50.695Z,97729.34
2023-07-23T05:06:54.150Z,97808.00
2023-07-23T05:11:58.887Z,97775.00
2023-07-23T05:17:02.542Z,97775.81
2023-07-23T05:22:07.158Z,97776.38
2023-07-23T05:27:11.943Z,97760.59
2023-07-23T05:32:15.504Z,97802.44
2023-07-23T05:37:19.032Z,97750.03
2023-07-23T05:42:24.120Z,97786.47
2023-07-23T05:47:27.656Z,97787.03
2023-07-23T05:52:31.286Z,97804.84
2023-07-23T05:57:36.354Z,97797.03
2023-07-23T06:02:39.924Z,97802.47
2023-07-23T06:07:43.444Z,97566.75
2023-07-23T06:12:48.246Z,97795.50
2023-07-23T06:17:51.796Z,97784.59
2023-07-23T06:22:56.088Z,97798.81
2023-07-23T06:28:01.054Z,97741.75
2023-07-23T06:33:04.839Z,97793.56
2023-07-23T06:38:08.377Z,97802.53
2023-07-23T06:43:13.214Z,97764.00
2023-07-23T06:48:17.526Z,97779.47
2023-07-23T06:53:21.430Z,97802.81
2023-07-23T06:58:26.450Z,97805.97
2023-07-23T07:03:30.332Z,97691.44
2023-07-23T07:08:33.841Z,97743.34
2023-07-23T07:13:39.852Z,97799.63
2023-07-23T07:18:43.322Z,97775.31
2023-07-23T07:23:46.836Z,97739.72
2023-07-23T07:28:52.905Z,97786.53
2023-07-23T07:33:56.381Z,97787.75
2023-07-23T07:38:59.918Z,97769.34
2023-07-23T07:44:04.879Z,97786.78
2023-07-23T07:49:08.336Z,97692.75
2023-07-23T07:54:11.977Z,97704.00
2023-07-23T07:59:17.442Z,97783.09
2023-07-23T08:04:21.537Z,97773.59
2023-07-23T08:09:26.425Z,97565.19
2023-07-23T08:14:32.373Z,97783.50
2023-07-23T08:19:36.246Z,97742.09
2023-07-23T08:24:40.366Z,97762.91
2023-07-23T08:29:50.645Z,97759.53
2023-07-23T08:34:56.122Z,97780.44
2023-07-23T08:40:00.148Z,97779.09
2023-07-23T08:45:43.324Z,97784.19
2023-07-23T08:50:47.963Z,97678.06
2023-07-23T08:55:51.761Z,97781.06
2023-07-23T09:00:56.678Z,97620.88
2023-07-23T09:06:01.259Z,97741.63
2023-07-23T09:11:06.311Z,97779.16
2023-07-23T09:16:11.162Z,97761.81
2023-07-23T09:21:24.366Z,97768.72
2023-07-23T09:26:30.260Z,97783.81
2023-07-23T09:31:35.253Z,97749.09
2023-07-23T09:36:38.931Z,97778.31
2023-07-23T09:41:42.387Z,97609.38
2023-07-23T09:46:49.121Z,97766.06
2023-07-23T09:51:53.994Z,97732.22
2023-07-23T09:56:58.408Z,97773.72
2023-07-23T10:02:04.166Z,97581.84
2023-07-23T10:07:09.525Z,97743.06
2023-07-23T10:12:13.042Z,97696.81
2023-07-23T10:17:19.860Z,97721.72
2023-07-23T10:22:24.566Z,97723.19
2023-07-23T10:27:28.128Z,97729.56
2023-07-23T10:32:33.217Z,97750.13
2023-07-23T10:37:36.701Z,97751.00
2023-07-23T10:42:45.442Z,97739.69
2023-07-23T10:47:54.152Z,97670.78
2023-07-23T10:53:03.471Z,97725.63
2023-07-23T10:58:12.919Z,97642.13
2023-07-23T11:03:20.184Z,97717.88
2023-07-23T11:08:27.660Z,97712.22
2023-07-23T11:13:35.279Z,97673.88
2023-07-23T11:18:41.450Z,97693.06
2023-07-23T11:23:45.160Z,97649.19
2023-07-23T11:28:49.164Z,97673.91
2023-07-23T11:33:54.064Z,97521.31
2023-07-23T11:38:58.635Z,97646.63
2023-07-23T11:44:04.979Z,97670.13
2023-07-23T11:49:11.124Z,97621.06
2023-07-23T11:54:15.883Z,97585.81
2023-07-23T11:59:19.632Z,97644.13
2023-07-23T12:04:24.634Z,97598.56
2023-07-23T12:09:28.335Z,97634.72
2023-07-23T12:14:31.906Z,97637.94
2023-07-23T12:19:36.690Z,97602.28
2023-07-23T12:24:40.425Z,97649.09
2023-07-23T12:29:45.104Z,97646.84
2023-07-23T12:34:50.856Z,97615.75
2023-07-23T12:39:57.181Z,97634.59
2023-07-23T12:45:00.880Z,97615.63
2023-07-23T12:50:07.178Z,97649.72
2023-07-23T12:55:10.919Z,97551.53
2023-07-23T13:00:15.011Z,97644.69
2023-07-23T13:05:21.249Z,97615.78
2023-07-23T13:10:24.763Z,97574.25
2023-07-23T13:15:28.203Z,97585.44
2023-07-23T13:20:33.396Z,97559.59
2023-07-23T13:25:36.881Z,97635.28
2023-07-23T13:30:40.388Z,97639.00
2023-07-23T13:35:45.457Z,97557.69
2023-07-23T13:40:49.102Z,97615.13
2023-07-23T13:45:52.510Z,97626.50
2023-07-23T13:50:57.441Z,97619.69
2023-07-23T13:56:01.284Z,97579.41
2023-07-23T14:01:04.760Z,97638.34
2023-07-23T14:06:09.885Z,97630.25
2023-07-23T14:11:13.415Z,97619.97
2023-07-23T14:16:16.986Z,97601.16
2023-07-23T14:21:21.776Z,97619.50
2023-07-23T14:26:25.495Z,97601.16
2023-07-23T14:31:29.514Z,97624.53
2023-07-23T14:36:34.637Z,97607.47
2023-07-23T14:41:38.169Z,97611.22
2023-07-23T14:46:41.733Z,97557.28
2023-07-23T14:51:46.698Z,97522.47
2023-07-23T14:56:54.156Z,97610.50
2023-07-23T15:01:57.746Z,97631.47
2023-07-23T15:07:03.726Z,97594.56
2023-07-23T15:12:08.210Z,97594.22
2023-07-23T15:17:12.647Z,97628.81
2023-07-23T15:22:18.211Z,97601.19
2023-07-23T15:27:23.077Z,97578.97
2023-07-23T15:32:27.403Z,97609.50
2023-07-23T15:37:32.295Z,97611.47
2023-07-23T15:42:35.906Z,97555.38
2023-07-23T15:47:39.322Z,97539.97
2023-07-23T15:52:44.413Z,97615.97
2023-07-23T15:57:48.007Z,97604.59
2023-07-23T16:02:51.575Z,97602.94
2023-07-23T16:07:56.377Z,97568.59
2023-07-23T16:13:21.124Z,97583.16
2023-07-23T16:18:24.539Z,97600.84
2023-07-23T16:23:29.332Z,97570.59
2023-07-23T16:28:32.746Z,97593.53
2023-07-23T16:33:36.633Z,97587.03
2023-07-23T16:38:43.250Z,97543.97
2023-07-23T16:43:48.152Z,97534.75
2023-07-23T16:48:51.828Z,97533.97
2023-07-23T16:53:56.599Z,97563.53
2023-07-23T16:59:00.049Z,97563.56
2023-07-23T17:04:03.498Z,97563.44
2023-07-23T17:09:08.330Z,97509.72
2023-07-23T17:14:12.251Z,97543.53
2023-07-23T17:19:17.369Z,97471.66
2023-07-23T17:24:22.356Z,97531.19
2023-07-23T17:29:25.835Z,97524.56
2023-07-23T17:34:29.396Z,97541.09
2023-07-23T17:39:34.184Z,97518.41
2023-07-23T17:44:37.694Z,97329.25
2023-07-23T17:49:41.234Z,97489.66
2023-07-23T17:54:46.122Z,97387.50
2023-07-23T17:59:49.827Z,97497.28
2023-07-23T18:04:53.325Z,97387.78
2023-07-23T18:09:58.284Z,97394.94
2023-07-23T18:15:02.271Z,97490.34
2023-07-23T18:20:06.582Z,97271.59
2023-07-23T18:25:11.647Z,97478.19
2023-07-23T18:30:15.093Z,97487.75
2023-07-23T18:35:19.780Z,97491.28
2023-07-23T18:40:24.718Z,97491.78
2023-07-23T18:45:28.382Z,97510.09
2023-07-23T18:50:34.471Z,97422.81
2023-07-23T18:55:39.319Z,97458.38
2023-07-23T19:00:45.310Z,97493.38
2023-07-23T19:05:48.780Z,97462.84
2023-07-23T19:10:53.658Z,97494.50
2023-07-23T19:15:57.412Z,97423.53
2023-07-23T19:21:00.955Z,97485.84
2023-07-23T19:26:05.728Z,97437.50
2023-07-23T19:31:11.087Z,97478.00
2023-07-23T19:36:14.584Z,97484.78
2023-07-23T19:41:19.417Z,97487.19
2023-07-23T19:46:23.783Z,97479.34
2023-07-23T19:51:27.450Z,97467.44
2023-07-23T19:56:32.509Z,97399.41
2023-07-23T20:01:36.086Z,97460.78
2023-07-23T20:06:39.553Z,97355.47
2023-07-23T20:11:44.437Z,97487.28
2023-07-23T20:16:47.961Z,97383.03
2023-07-23T20:21:51.443Z,97434.13
2023-07-23T20:26:59.517Z,97450.91
2023-07-23T20:32:10.009Z,97456.19
2023-07-23T20:37:15.552Z,97464.34
2023-07-23T20:42:20.916Z,97393.47
2023-07-23T20:47:24.468Z,97452.72
2023-07-23T20:52:27.923Z,97456.16
2023-07-23T20:57:32.649Z,97384.16
2023-07-23T21:02:36.207Z,97437.88
2023-07-23T21:07:40.251Z,97434.44
2023-07-23T21:12:45.252Z,97440.72
2023-07-23T21:17:48.881Z,97436.88
2023-07-23T21:22:52.589Z,97456.00
2023-07-23T21:27:57.455Z,97450.50
2023-07-23T21:33:01.039Z,97321.78
2023-07-23T21:38:04.465Z,97424.28
2023-07-23T21:43:09.455Z,97434.97
2023-07-23T21:48:12.825Z,97381.31
2023-07-23T21:53:16.686Z,97363.22
2023-07-23T21:58:21.631Z,97420.66
2023-07-23T22:03:25.338Z,97424.63
2023-07-23T22:08:28.797Z,97181.09
2023-07-23T22:13:33.571Z,97411.81
2023-07-23T22:18:36.910Z,97364.88
2023-07-23T22:23:40.360Z,97421.34
2023-07-23T22:28:45.087Z,97446.63
2023-07-23T22:33:48.526Z,97424.25
2023-07-23T22:38:52.054Z,97441.72
2023-07-23T22:43:57.335Z,97451.91
2023-07-23T22:49:00.965Z,97454.63
2023-07-23T22:54:04.499Z,97419.84
2023-07-23T22:59:09.656Z,97478.88
2023-07-23T23:04:16.316Z,97515.84
2023-07-23T23:09:19.671Z,97494.53
2023-07-23T23:14:24.711Z,97465.97
2023-07-23T23:19:28.124Z,97342.00
2023-07-23T23:24:31.571Z,97481.34
2023-07-23T23:29:36.880Z,97401.53
2023-07-23T23:34:40.249Z,97446.16
2023-07-23T23:39:43.652Z,97417.00
2023-07-23T23:44:48.636Z,97414.63
2023-07-23T23:49:52.373Z,97419.72
2023-07-23T23:54:55.729Z,97341.38
